createdAt,value
2022-12-29T00:02:42.858Z,5.30
2022-12-29T00:07:45.722Z,5.32
2022-12-29T00:13:07.340Z,5.34
2022-12-29T00:18:10.196Z,5.38
2022-12-29T00:23:31.688Z,5.39
2022-12-29T00:28:53.821Z,5.41
2022-12-29T00:34:15.231Z,5.42
2022-12-29T00:39:38.408Z,5.43
2022-12-29T00:44:41.103Z,5.44
2022-12-29T00:49:43.830Z,5.45
2022-12-29T00:54:46.491Z,5.45
2022-12-29T00:59:49.311Z,5.44
2022-12-29T01:04:51.971Z,5.42
2022-12-29T01:10:13.126Z,5.40
2022-12-29T01:15:16.323Z,5.39
2022-12-29T01:20:19.156Z,5.37
2022-12-29T01:25:21.947Z,5.35
2022-12-29T01:30:24.753Z,5.32
2022-12-29T01:35:27.980Z,5.30
2022-12-29T01:40:30.966Z,5.27
2022-12-29T01:45:33.703Z,5.26
2022-12-29T01:50:42.460Z,5.25
2022-12-29T01:55:55.105Z,5.23
2022-12-29T02:00:58.006Z,5.23
2022-12-29T02:06:12.412Z,5.22
2022-12-29T02:11:17.605Z,5.22
2022-12-29T02:16:47.043Z,5.22
2022-12-29T02:22:06.288Z,5.19
2022-12-29T02:27:15.191Z,5.19
2022-12-29T02:32:29.852Z,5.17
2022-12-29T02:37:42.601Z,5.17
2022-12-29T02:43:05.732Z,5.18
2022-12-29T02:48:14.488Z,5.19
2022-12-29T02:53:40.378Z,5.20
2022-12-29T02:58:43.107Z,5.20
2022-12-29T03:04:04.221Z,5.21
2022-12-29T03:09:19.079Z,5.20
2022-12-29T03:14:49.187Z,5.22
2022-12-29T03:19:57.072Z,5.24
2022-12-29T03:25:14.265Z,5.23
2022-12-29T03:30:17.951Z,5.25
2022-12-29T03:35:25.243Z,5.23
2022-12-29T03:40:30.112Z,5.23
2022-12-29T03:45:32.830Z,5.21
2022-12-29T03:50:35.619Z,5.20
2022-12-29T03:55:38.321Z,5.20
2022-12-29T04:00:41.016Z,5.19
2022-12-29T04:05:43.681Z,5.18
2022-12-29T04:10:46.498Z,5.18
2022-12-29T04:15:49.259Z,5.17
2022-12-29T04:21:00.848Z,5.17
2022-12-29T04:26:04.454Z,5.16
2022-12-29T04:31:07.143Z,5.15
2022-12-29T04:36:10.440Z,5.14
2022-12-29T04:41:13.120Z,5.13
2022-12-29T04:46:15.981Z,5.13
2022-12-29T04:51:18.843Z,5.13
2022-12-29T04:56:21.525Z,5.14
2022-12-29T05:01:24.312Z,5.17
2022-12-29T05:06:27.150Z,5.17
2022-12-29T05:11:29.839Z,5.19
2022-12-29T05:16:32.586Z,5.21
2022-12-29T05:21:35.398Z,5.24
2022-12-29T05:26:38.255Z,5.26
2022-12-29T05:31:41.026Z,5.26
2022-12-29T05:36:43.855Z,5.27
2022-12-29T05:41:46.567Z,5.29
2022-12-29T05:46:49.507Z,5.31
2022-12-29T05:51:52.564Z,5.32
2022-12-29T05:56:55.470Z,5.32
2022-12-29T06:01:58.267Z,5.32
2022-12-29T06:07:01.054Z,5.33
2022-12-29T06:12:04.309Z,5.34
2022-12-29T06:17:07.397Z,5.35
2022-12-29T06:22:13.314Z,5.36
2022-12-29T06:27:16.109Z,5.36
2022-12-29T06:32:20.702Z,5.39
2022-12-29T06:37:23.377Z,5.39
2022-12-29T06:42:26.076Z,5.41
2022-12-29T06:47:28.912Z,5.38
2022-12-29T06:52:31.628Z,5.35
2022-12-29T06:57:34.935Z,5.32
2022-12-29T07:02:37.680Z,5.30
2022-12-29T07:07:40.728Z,5.31
2022-12-29T07:12:43.438Z,5.32
2022-12-29T07:17:46.135Z,5.36
2022-12-29T07:22:48.800Z,5.38
2022-12-29T07:27:51.730Z,5.42
2022-12-29T07:32:54.609Z,5.46
2022-12-29T07:37:57.985Z,5.48
2022-12-29T07:43:03.204Z,5.52
2022-12-29T07:48:08.730Z,5.58
2022-12-29T07:53:11.776Z,5.61
2022-12-29T07:58:14.464Z,5.66
2022-12-29T08:03:17.163Z,5.69
2022-12-29T08:08:21.243Z,5.73
2022-12-29T08:13:24.415Z,5.75
2022-12-29T08:18:27.218Z,5.78
2022-12-29T08:23:30.089Z,5.80
2022-12-29T08:28:33.828Z,5.87
2022-12-29T08:33:37.010Z,5.90
2022-12-29T08:38:39.705Z,5.95
2022-12-29T08:43:42.370Z,6.02
2022-12-29T08:48:45.250Z,6.04
2022-12-29T08:53:47.935Z,6.07
2022-12-29T08:58:52.021Z,6.07
2022-12-29T09:09:19.293Z,6.12
2022-12-29T09:14:22.708Z,6.18
2022-12-29T09:19:25.614Z,6.28
2022-12-29T09:24:28.299Z,6.43
2022-12-29T09:29:30.990Z,6.56
2022-12-29T09:34:33.657Z,6.61
2022-12-29T09:39:36.520Z,6.65
2022-12-29T09:44:51.708Z,6.64
2022-12-29T09:50:03.342Z,6.64
2022-12-29T09:55:15.639Z,6.64
2022-12-29T10:00:21.718Z,6.67
2022-12-29T10:05:35.269Z,6.69
2022-12-29T10:10:50.271Z,6.72
2022-12-29T10:16:26.576Z,6.73
2022-12-29T10:21:42.043Z,6.77
2022-12-29T10:26:46.460Z,6.89
2022-12-29T10:31:57.668Z,7.10
2022-12-29T10:37:33.451Z,7.21
2022-12-29T10:42:43.645Z,7.38
2022-12-29T10:48:10.323Z,7.71
2022-12-29T10:53:22.117Z,7.85
2022-12-29T10:58:26.918Z,7.84
2022-12-29T11:04:00.223Z,7.77
2022-12-29T11:09:15.497Z,7.70
2022-12-29T11:14:28.334Z,7.65
2022-12-29T11:19:40.487Z,7.62
2022-12-29T11:24:48.796Z,7.56
2022-12-29T11:29:54.212Z,7.54
2022-12-29T11:35:02.076Z,7.51
2022-12-29T11:40:17.874Z,7.51
2022-12-29T11:45:23.934Z,7.52
2022-12-29T11:50:33.052Z,7.51
2022-12-29T11:55:36.078Z,7.47
2022-12-29T12:00:41.359Z,7.43
2022-12-29T12:05:55.130Z,7.40
2022-12-29T12:11:21.683Z,7.37
2022-12-29T12:16:39.971Z,7.36
2022-12-29T12:21:47.220Z,7.35
2022-12-29T12:27:12.139Z,7.48
2022-12-29T12:32:24.409Z,7.72
2022-12-29T12:37:42.429Z,7.72
2022-12-29T12:43:16.630Z,7.66
2022-12-29T12:48:44.688Z,7.64
2022-12-29T12:54:13.391Z,7.64
2022-12-29T12:59:42.557Z,7.64
2022-12-29T13:05:18.123Z,7.65
2022-12-29T13:10:38.583Z,7.64
2022-12-29T13:16:01.428Z,7.57
2022-12-29T13:21:33.671Z,7.49
2022-12-29T13:26:45.182Z,7.41
2022-12-29T13:32:18.713Z,7.34
2022-12-29T13:37:27.727Z,7.33
2022-12-29T13:42:31.407Z,7.34
2022-12-29T13:47:39.662Z,7.36
2022-12-29T13:52:48.371Z,7.39
2022-12-29T13:58:08.560Z,7.41
2022-12-29T14:03:11.368Z,7.49
2022-12-29T14:08:19.294Z,7.55
2022-12-29T14:13:24.451Z,7.60
2022-12-29T14:18:33.864Z,7.66
2022-12-29T14:23:44.545Z,7.70
2022-12-29T14:28:49.673Z,7.71
2022-12-29T14:34:07.664Z,7.72
2022-12-29T14:39:29.155Z,7.73
2022-12-29T14:44:32.291Z,7.74
2022-12-29T14:49:44.219Z,7.73
2022-12-29T14:54:50.817Z,7.75
2022-12-29T14:59:58.416Z,7.75
2022-12-29T15:05:03.366Z,7.77
2022-12-29T15:10:16.718Z,7.77
2022-12-29T15:15:25.459Z,7.79
2022-12-29T15:20:30.989Z,7.80
2022-12-29T15:25:33.736Z,7.81
2022-12-29T15:30:36.613Z,7.84
2022-12-29T15:35:39.322Z,7.86
2022-12-29T15:40:46.022Z,7.89
2022-12-29T15:45:50.774Z,7.88
2022-12-29T15:50:53.767Z,7.86
2022-12-29T15:56:22.964Z,7.81
2022-12-29T16:01:33.042Z,7.76
2022-12-29T16:06:59.626Z,7.74
2022-12-29T16:12:18.610Z,7.71
2022-12-29T16:17:24.777Z,7.68
2022-12-29T16:22:33.729Z,7.66
2022-12-29T16:27:42.444Z,7.64
2022-12-29T16:32:50.952Z,7.63
2022-12-29T16:38:14.919Z,7.63
2022-12-29T16:43:35.920Z,7.61
2022-12-29T16:48:50.725Z,7.62
2022-12-29T16:53:56.102Z,7.62
2022-12-29T16:59:09.984Z,7.65
2022-12-29T17:04:14.654Z,7.64
2022-12-29T17:09:26.089Z,7.65
2022-12-29T17:14:45.982Z,7.66
2022-12-29T17:19:52.648Z,7.64
2022-12-29T17:24:58.121Z,7.64
2022-12-29T17:30:13.524Z,7.61
2022-12-29T17:35:18.308Z,7.61
2022-12-29T17:40:24.669Z,7.61
2022-12-29T17:45:32.421Z,7.60
2022-12-29T17:50:36.250Z,7.59
2022-12-29T17:55:39.223Z,7.61
2022-12-29T18:00:42.116Z,7.61
2022-12-29T18:05:45.432Z,7.63
2022-12-29T18:10:48.587Z,7.61
2022-12-29T18:15:53.071Z,7.59
2022-12-29T18:20:59.624Z,7.58
2022-12-29T18:26:03.958Z,7.53
2022-12-29T18:31:17.431Z,7.49
2022-12-29T18:36:20.636Z,7.46
2022-12-29T18:41:30.092Z,7.42
2022-12-29T18:46:32.964Z,7.39
2022-12-29T18:51:35.881Z,7.39
2022-12-29T18:56:38.540Z,7.39
2022-12-29T19:01:41.314Z,7.38
2022-12-29T19:06:44.346Z,7.38
2022-12-29T19:11:47.146Z,7.37
2022-12-29T19:16:49.941Z,7.34
2022-12-29T19:21:56.617Z,7.28
2022-12-29T19:26:59.443Z,7.23
2022-12-29T19:32:02.207Z,7.21
2022-12-29T19:37:04.911Z,7.18
2022-12-29T19:42:07.589Z,7.18
2022-12-29T19:47:10.415Z,7.17
2022-12-29T19:52:13.346Z,7.17
2022-12-29T19:57:16.250Z,7.17
2022-12-29T20:02:19.326Z,7.18
2022-12-29T20:07:23.902Z,7.18
2022-12-29T20:12:29.300Z,7.18
2022-12-29T20:18:02.555Z,7.20
2022-12-29T20:22:55.142Z,7.24
2022-12-29T20:27:57.947Z,7.25
2022-12-29T20:33:06.081Z,7.22
2022-12-29T20:38:10.718Z,7.17
2022-12-29T20:43:14.753Z,7.11
2022-12-29T20:48:17.420Z,7.07
2022-12-29T20:53:20.289Z,7.03
2022-12-29T20:58:24.261Z,6.99
2022-12-29T21:03:27.713Z,6.94
2022-12-29T21:08:31.290Z,6.93
2022-12-29T21:13:34.027Z,6.93
2022-12-29T21:18:36.807Z,6.91
2022-12-29T21:23:40.149Z,6.91
2022-12-29T21:28:43.729Z,6.93
2022-12-29T21:33:46.443Z,6.94
2022-12-29T21:38:49.240Z,6.94
2022-12-29T21:44:11.443Z,6.96
2022-12-29T21:49:14.432Z,7.00
2022-12-29T21:54:42.312Z,7.04
2022-12-29T22:00:03.534Z,7.07
2022-12-29T22:05:26.402Z,7.08
2022-12-29T22:10:47.742Z,7.11
2022-12-29T22:15:50.478Z,7.14
2022-12-29T22:20:53.339Z,7.18
2022-12-29T22:25:56.142Z,7.24
2022-12-29T22:30:59.122Z,7.25
2022-12-29T22:36:01.836Z,7.28
2022-12-29T22:41:04.753Z,7.31
2022-12-29T22:46:10.304Z,7.31
2022-12-29T22:51:14.036Z,7.30
2022-12-29T22:56:17.651Z,7.28
2022-12-29T23:01:23.148Z,7.28
2022-12-29T23:06:26.132Z,7.23
2022-12-29T23:11:31.920Z,7.19
2022-12-29T23:16:34.727Z,7.15
2022-12-29T23:21:37.564Z,7.11
2022-12-29T23:26:46.119Z,7.08
2022-12-29T23:31:49.258Z,7.06
2022-12-29T23:36:52.030Z,7.04
2022-12-29T23:41:54.753Z,7.03
2022-12-29T23:46:57.499Z,7.00
2022-12-29T23:52:00.358Z,6.97
2022-12-29T23:57:03.048Z,6.97
